Portsmouth, NH

6:57 AM EDT on May 28, 2015 (GMT -0400)
Maplewood Avenue | | Change Station
CLOSE
Current Station
Personal Weather Station
Location: Portsmouth, NH
Elevation: 60 ft
Nearby Weather Stations

Elev 60 ft 43.08 °N, 70.77 °W | Updated 31 seconds ago

Scattered Clouds
Scattered Clouds
69.1 °F
Feels Like 69.1 °F
N
2.0
Wind Variable Wind from SW
Gusts 2.0 mph

Today
High -- | Low -- °F
--% Chance of Precip.
Yesterday
High -- | Low -- °F
Precip. -- in
5:08 AM 8:12 PM
Waxing Gibbous, 75% visible
Pressure 30.09 in
Visibility 10.0 miles
Clouds Few 14000 ft
Scattered Clouds 18000 ft
Dew Point 64 °F
Humidity 83%
Rainfall 0.00 in
Snow Depth Not available.
UV 0 out of 12
Pollen 9.10 out of 12
Air Quality Not available.
Flu Activity Sporadic
METAR KPSM 280958Z 23007KT 10SM FEW140 SCT180 20/17 A3008 RMK AO2A SLP189 T01960171

More Conditions Fewer Conditions

Pressure 30.09 in
Visibility 10.0 miles
Clouds Few 14000 ft
Scattered Clouds 18000 ft
Dew Point 64 °F
Humidity 83%
Rainfall 0.00 in
Snow Depth Not available.
UV 0 out of 12
Pollen 9.10 out of 12
Air Quality Not available.
Flu Activity Sporadic
METAR KPSM 280958Z 23007KT 10SM FEW140 SCT180 20/17 A3008 RMK AO2A SLP189 T01960171

More Conditions Fewer Conditions

10-Day Weather Forecast

Almanac

Astronomy

May. 28, 2015 Rise Set
Actual Time
Civil Twilight
Nautical Twilight
Astronomical Twilight
Moon
Length of Visible Light
Length of Day
Tomorrow will be .
, % of the Moon is Illuminated

Today's Extremes

State Highs State Lows

Community

WunderPhotos

Upload Photos

1,824,946 photos uploaded!

WunderBlogs® & News

Nearby

Air Quality

  Air Quality AQ Index Pollutant
Not available.

Snow Depth

Station Depth Elevation

Earthquake Activity

City Distance Mag. Time & Date
Minimum magnitude displayed is 2.5.

Coastal Water Temperatures

Place Temperature

Stations

Nearby Weather Stations

Station Location Temp. Windchill Dew Point Humidity Wind Precip. Elev Updated Type